Time;durP1;ratioP1;P1;durP2;ratioP2;P2;SDS_P1;SDS_P2;PMS_P1;PMS_P2;Temp;Humidity;BMP_temperature;BMP_pressure;BME280_temperature;BME280_humidity;BME280_pressure;Samples;Min_cycle;Max_cycle;Signal;HPM_P1;HPM_P2
2022/01/17 00:00:30;;;;;;;;;41.50;35.50;;;;;-145.45;100.00;57426.63;4979193;28;45310;-76
2022/01/17 00:02:59;;;;;;;;;42.50;33.00;;;;;-145.45;100.00;57426.63;4973849;28;45243;-76
2022/01/17 00:05:25;;;;;;;;;35.00;32.00;;;;;-145.45;100.00;57426.63;4977806;28;45600;-76
2022/01/17 00:07:51;;;;;;;;;35.00;31.00;;;;;-145.45;100.00;57426.63;4974233;28;47556;-76
2022/01/17 00:10:17;;;;;;;;;35.50;29.00;;;;;-145.45;100.00;57426.63;4980079;28;46154;-76
2022/01/17 00:12:45;;;;;;;;;32.50;30.00;;;;;-145.45;100.00;57426.63;4967762;28;45266;-76
2022/01/17 00:15:29;;;;;;;;;34.50;32.00;;;;;-145.45;100.00;57426.63;4978745;28;45273;-75
2022/01/17 00:18:23;;;;;;;;;33.50;29.75;;;;;-145.45;100.00;57426.63;4980159;28;45334;-75
2022/01/17 00:20:47;;;;;;;;;40.00;32.00;;;;;-145.45;100.00;57426.63;4978336;28;45539;-75
2022/01/17 00:23:13;;;;;;;;;36.00;27.75;;;;;-145.45;100.00;57426.63;4987627;28;45250;-75
2022/01/17 00:25:39;;;;;;;;;39.75;32.25;;;;;-145.45;100.00;57426.63;4977942;28;45194;-75
2022/01/17 00:28:04;;;;;;;;;40.00;34.75;;;;;-145.45;100.00;57426.63;4975851;28;45243;-76
2022/01/17 00:30:30;;;;;;;;;33.25;30.00;;;;;-145.45;100.00;57426.63;4993393;28;47105;-76
2022/01/17 00:32:55;;;;;;;;;35.00;32.00;;;;;-145.45;100.00;57426.63;4988743;28;46106;-74
2022/01/17 00:35:21;;;;;;;;;34.50;32.00;;;;;-145.45;100.00;57426.63;4978835;28;45682;-73
2022/01/17 00:37:46;;;;;;;;;31.50;29.00;;;;;-145.45;100.00;57426.63;4978144;28;45589;-76
2022/01/17 00:40:13;;;;;;;;;40.75;35.00;;;;;-145.45;100.00;57426.63;4994709;28;47372;-76
2022/01/17 00:42:39;;;;;;;;;35.50;34.25;;;;;-145.45;100.00;57426.63;4989574;28;45398;-76
2022/01/17 00:45:07;;;;;;;;;35.75;29.50;;;;;-145.45;100.00;57426.63;4980402;28;45314;-76
2022/01/17 00:47:33;;;;;;;;;44.25;37.00;;;;;-145.45;100.00;57426.63;4973911;28;45582;-74
2022/01/17 00:49:58;;;;;;;;;47.00;39.00;;;;;-145.45;100.00;57426.63;4979830;28;45298;-74
2022/01/17 00:52:23;;;;;;;;;44.25;34.00;;;;;-145.45;100.00;57426.63;4965342;28;45472;-76
2022/01/17 00:54:49;;;;;;;;;37.25;31.75;;;;;-145.45;100.00;57426.63;4980134;28;45300;-76
2022/01/17 00:57:14;;;;;;;;;35.25;30.75;;;;;-145.45;100.00;57426.63;4974337;28;45420;-76
2022/01/17 00:59:39;;;;;;;;;36.50;31.00;;;;;-145.45;100.00;57426.63;4975681;28;45252;-77
2022/01/17 01:02:05;;;;;;;;;28.50;24.25;;;;;-145.45;100.00;57426.63;4975268;28;45449;-73
2022/01/17 01:04:30;;;;;;;;;38.25;34.50;;;;;-145.45;100.00;57426.63;4976966;28;45271;-73
2022/01/17 01:06:56;;;;;;;;;30.50;25.50;;;;;-145.45;100.00;57426.63;4976222;28;45314;-73
2022/01/17 01:09:22;;;;;;;;;35.25;30.50;;;;;-145.45;100.00;57426.63;4977638;28;45396;-76
2022/01/17 01:11:47;;;;;;;;;33.50;31.25;;;;;-145.45;100.00;57426.63;4972597;28;45345;-76
2022/01/17 01:14:12;;;;;;;;;35.50;32.75;;;;;-145.45;100.00;57426.63;4975803;28;45345;-73
2022/01/17 01:16:38;;;;;;;;;35.50;31.25;;;;;-145.45;100.00;57426.63;4974811;28;45881;-76
2022/01/17 01:19:19;;;;;;;;;35.50;30.50;;;;;-145.45;100.00;57426.63;4974512;28;45294;-76
2022/01/17 01:27:39;;;;;;;;;37.25;31.25;;;;;-145.45;100.00;57426.63;4973839;28;45316;-74
2022/01/17 01:27:47;;;;;;;;;45.50;36.00;;;;;-145.45;100.00;57426.63;4972025;28;45638;-74
2022/01/17 01:30:15;;;;;;;;;39.00;32.50;;;;;-145.45;100.00;57426.63;4982362;28;46240;-74
2022/01/17 01:33:00;;;;;;;;;34.75;32.00;;;;;-145.45;100.00;57426.63;4978385;28;45432;-74
2022/01/17 01:35:28;;;;;;;;;44.00;32.75;;;;;-145.45;100.00;57426.63;4979704;28;45350;-73
2022/01/17 01:37:54;;;;;;;;;37.00;34.50;;;;;-145.45;100.00;57426.63;4981912;28;47152;-74
2022/01/17 01:40:20;;;;;;;;;38.50;35.50;;;;;-145.45;100.00;57426.63;4980571;28;47622;-74
2022/01/17 01:42:49;;;;;;;;;41.50;35.25;;;;;-145.45;100.00;57426.63;4977909;28;45222;-74
2022/01/17 01:45:15;;;;;;;;;44.75;33.50;;;;;-145.45;100.00;57426.63;4997473;28;45430;-74
2022/01/17 01:47:41;;;;;;;;;40.50;30.25;;;;;-145.45;100.00;57426.63;4977274;28;45373;-73
2022/01/17 01:50:09;;;;;;;;;40.50;34.25;;;;;-145.45;100.00;57426.63;4982618;28;45689;-74
2022/01/17 01:52:35;;;;;;;;;39.50;33.00;;;;;-145.45;100.00;57426.63;4976780;28;45405;-74
2022/01/17 01:55:00;;;;;;;;;32.75;32.75;;;;;-145.45;100.00;57426.63;4982913;28;45543;-74
2022/01/17 01:57:25;;;;;;;;;41.75;34.50;;;;;-145.45;100.00;57426.63;4976521;28;45290;-73
2022/01/17 01:59:52;;;;;;;;;46.75;37.00;;;;;-145.45;100.00;57426.63;4982367;28;45442;-73
2022/01/17 02:02:17;;;;;;;;;36.50;32.50;;;;;-145.45;100.00;57426.63;4977213;28;45407;-74
2022/01/17 02:04:43;;;;;;;;;38.00;33.75;;;;;-145.45;100.00;57426.63;4978666;28;45336;-74
2022/01/17 02:07:11;;;;;;;;;42.25;37.50;;;;;-145.45;100.00;57426.63;4976727;28;45421;-74
2022/01/17 02:09:37;;;;;;;;;45.75;36.50;;;;;-145.45;100.00;57426.63;4979868;28;45432;-74
2022/01/17 02:12:03;;;;;;;;;42.25;34.50;;;;;-145.45;100.00;57426.63;4972940;28;45492;-74
2022/01/17 02:14:29;;;;;;;;;45.75;36.00;;;;;-145.45;100.00;57426.63;4980432;28;45306;-74
2022/01/17 02:16:54;;;;;;;;;41.50;36.50;;;;;-145.45;100.00;57426.63;4980722;28;46207;-73
2022/01/17 02:19:24;;;;;;;;;45.75;38.25;;;;;-145.45;100.00;57426.63;4981600;28;46621;-74
2022/01/17 02:21:50;;;;;;;;;44.00;36.75;;;;;-145.45;100.00;57426.63;4975751;28;44845;-74
2022/01/17 02:24:18;;;;;;;;;38.25;35.00;;;;;-145.45;100.00;57426.63;4979209;28;45369;-74
2022/01/17 02:26:45;;;;;;;;;42.25;35.00;;;;;-145.45;100.00;57426.63;4976450;28;45500;-75
2022/01/17 02:29:11;;;;;;;;;35.50;32.50;;;;;-145.45;100.00;57426.63;4979313;28;46651;-74
2022/01/17 02:31:36;;;;;;;;;41.75;37.00;;;;;-145.45;100.00;57426.63;4978236;28;45216;-74
2022/01/17 02:34:03;;;;;;;;;40.75;36.00;;;;;-145.45;100.00;57426.63;4979467;28;45278;-74
2022/01/17 02:36:29;;;;;;;;;47.00;37.50;;;;;-145.45;100.00;57426.63;4978938;28;45321;-74
2022/01/17 02:38:55;;;;;;;;;36.75;34.00;;;;;-145.45;100.00;57426.63;4981788;28;45322;-74
2022/01/17 02:41:20;;;;;;;;;38.50;33.00;;;;;-145.45;100.00;57426.63;4975931;28;45305;-74
2022/01/17 02:43:47;;;;;;;;;46.25;39.50;;;;;-145.45;100.00;57426.63;4980658;28;45268;-74
2022/01/17 02:48:40;;;;;;;;;43.75;35.50;;;;;-145.45;100.00;57426.63;4977650;28;45427;-74
2022/01/17 02:51:07;;;;;;;;;44.50;37.50;;;;;-145.45;100.00;57426.63;4976912;28;45504;-74
2022/01/17 02:53:32;;;;;;;;;41.00;36.00;;;;;-145.45;100.00;57426.63;4980755;28;45412;-74
2022/01/17 02:56:05;;;;;;;;;39.25;36.00;;;;;-145.45;100.00;57426.63;4978133;28;45397;-74
2022/01/17 02:58:33;;;;;;;;;45.50;37.25;;;;;-145.45;100.00;57426.63;4979012;28;48488;-74
2022/01/17 03:01:00;;;;;;;;;45.75;38.25;;;;;-145.45;100.00;57426.63;4979054;28;45500;-74
2022/01/17 03:03:27;;;;;;;;;38.25;33.25;;;;;-145.45;100.00;57426.63;4977341;28;45471;-74
2022/01/17 03:05:55;;;;;;;;;46.25;36.75;;;;;-145.45;100.00;57426.63;4978338;28;45212;-74
2022/01/17 03:08:22;;;;;;;;;48.25;36.25;;;;;-145.45;100.00;57426.63;4976853;28;46662;-74
2022/01/17 03:10:49;;;;;;;;;45.50;37.50;;;;;-145.45;100.00;57426.63;4979858;28;45348;-74
2022/01/17 03:13:16;;;;;;;;;43.75;36.00;;;;;-145.45;100.00;57426.63;4972768;28;45368;-74
2022/01/17 03:15:44;;;;;;;;;38.00;32.50;;;;;-145.45;100.00;57426.63;4979743;28;45286;-74
2022/01/17 03:18:10;;;;;;;;;40.75;35.75;;;;;-145.45;100.00;57426.63;4968876;28;45423;-74
2022/01/17 03:20:37;;;;;;;;;41.25;36.50;;;;;-145.45;100.00;57426.63;4979556;28;45187;-74
2022/01/17 03:23:03;;;;;;;;;44.00;36.75;;;;;-145.45;100.00;57426.63;4976974;28;45356;-74
2022/01/17 03:25:29;;;;;;;;;47.00;36.75;;;;;-145.45;100.00;57426.63;4973668;28;45475;-74
2022/01/17 03:27:54;;;;;;;;;43.75;36.00;;;;;-145.45;100.00;57426.63;4976662;28;46507;-73
2022/01/17 03:30:22;;;;;;;;;39.75;34.25;;;;;-145.45;100.00;57426.63;4980577;28;45362;-74
2022/01/17 03:32:47;;;;;;;;;41.50;38.00;;;;;-145.45;100.00;57426.63;4973829;28;45188;-74
2022/01/17 03:35:13;;;;;;;;;46.50;38.50;;;;;-145.45;100.00;57426.63;4980847;28;45317;-74
2022/01/17 03:37:38;;;;;;;;;41.75;36.75;;;;;-145.45;100.00;57426.63;4978341;28;46202;-73
2022/01/17 03:40:04;;;;;;;;;52.50;37.25;;;;;-145.45;100.00;57426.63;4981204;28;45255;-74
2022/01/17 03:42:30;;;;;;;;;37.50;33.75;;;;;-145.45;100.00;57426.63;4975101;28;45294;-74
2022/01/17 03:44:55;;;;;;;;;45.25;36.25;;;;;-145.45;100.00;57426.63;4981035;28;45555;-74
2022/01/17 03:47:21;;;;;;;;;46.50;38.50;;;;;-145.45;100.00;57426.63;4973802;28;45433;-74
2022/01/17 03:49:46;;;;;;;;;39.25;35.75;;;;;-145.45;100.00;57426.63;4980129;28;45303;-74
2022/01/17 03:52:11;;;;;;;;;44.50;38.75;;;;;-145.45;100.00;57426.63;4975133;28;45413;-73
2022/01/17 03:54:37;;;;;;;;;42.25;38.50;;;;;-145.45;100.00;57426.63;4980740;28;45405;-73
2022/01/17 03:57:03;;;;;;;;;44.50;38.00;;;;;-145.45;100.00;57426.63;4975910;28;46466;-74
2022/01/17 03:59:28;;;;;;;;;46.75;38.00;;;;;-145.45;100.00;57426.63;4977209;28;45362;-74
2022/01/17 04:01:54;;;;;;;;;38.00;36.50;;;;;-145.45;100.00;57426.63;4977321;28;45418;-74
2022/01/17 04:04:20;;;;;;;;;46.75;39.50;;;;;-145.45;100.00;57426.63;4979277;28;46185;-74
2022/01/17 04:06:45;;;;;;;;;45.75;38.25;;;;;-145.45;100.00;57426.63;4978114;28;46448;-74
2022/01/17 04:09:11;;;;;;;;;33.75;33.50;;;;;-145.45;100.00;57426.63;4979549;28;45354;-74
2022/01/17 04:11:37;;;;;;;;;41.75;37.00;;;;;-145.45;100.00;57426.63;4976267;28;45300;-74
2022/01/17 04:14:05;;;;;;;;;44.50;37.25;;;;;-145.45;100.00;57426.63;4973622;28;46133;-74
2022/01/17 04:16:31;;;;;;;;;49.50;39.25;;;;;-145.45;100.00;57426.63;4978778;28;47315;-74
2022/01/17 04:18:56;;;;;;;;;47.50;39.50;;;;;-145.45;100.00;57426.63;4979402;28;45270;-75
2022/01/17 04:21:22;;;;;;;;;48.00;37.75;;;;;-145.45;100.00;57426.63;4977990;28;45300;-75
2022/01/17 04:23:47;;;;;;;;;39.75;36.50;;;;;-145.45;100.00;57426.63;4972417;28;45820;-74
2022/01/17 04:26:14;;;;;;;;;45.50;39.50;;;;;-145.45;100.00;57426.63;4977900;28;45408;-74
2022/01/17 04:28:40;;;;;;;;;47.25;38.00;;;;;-145.45;100.00;57426.63;4988255;28;45306;-74
2022/01/17 04:31:05;;;;;;;;;40.00;35.25;;;;;-145.45;100.00;57426.63;4976055;28;45466;-75
2022/01/17 04:33:31;;;;;;;;;41.50;37.00;;;;;-145.45;100.00;57426.63;4977602;28;47202;-74
2022/01/17 04:35:56;;;;;;;;;39.75;36.00;;;;;-145.45;100.00;57426.63;4976886;28;45412;-74
2022/01/17 04:38:22;;;;;;;;;55.25;41.75;;;;;-145.45;100.00;57426.63;4978832;28;45468;-75
2022/01/17 04:40:50;;;;;;;;;43.25;37.75;;;;;-145.45;100.00;57426.63;4978255;28;45410;-74
2022/01/17 04:43:33;;;;;;;;;52.00;40.00;;;;;-145.45;100.00;57426.63;4976649;28;45580;-75
2022/01/17 04:45:58;;;;;;;;;47.50;39.25;;;;;-145.45;100.00;57426.63;4965578;28;45518;-75
2022/01/17 04:48:25;;;;;;;;;50.75;37.50;;;;;-145.45;100.00;57426.63;4977830;28;45223;-76
2022/01/17 04:50:51;;;;;;;;;46.00;38.00;;;;;-145.45;100.00;57426.63;4977513;28;45408;-73
2022/01/17 04:53:19;;;;;;;;;39.50;35.25;;;;;-145.45;100.00;57426.63;4976862;28;45652;-76
2022/01/17 04:55:45;;;;;;;;;49.75;40.00;;;;;-145.45;100.00;57426.63;4978334;28;45439;-76
2022/01/17 04:58:10;;;;;;;;;48.50;38.25;;;;;-145.45;100.00;57426.63;4975774;28;45483;-76
2022/01/17 05:00:36;;;;;;;;;42.25;38.75;;;;;-145.45;100.00;57426.63;4976847;28;45957;-74
2022/01/17 05:03:01;;;;;;;;;39.25;36.25;;;;;-145.45;100.00;57426.63;4971731;28;45443;-75
2022/01/17 05:05:27;;;;;;;;;48.50;38.50;;;;;-145.45;100.00;57426.63;4976921;28;46967;-76
2022/01/17 05:07:52;;;;;;;;;44.25;39.50;;;;;-145.45;100.00;57426.63;4974325;28;45263;-72
2022/01/17 05:10:18;;;;;;;;;49.00;39.00;;;;;-145.45;100.00;57426.63;4979512;28;45290;-74
2022/01/17 05:12:45;;;;;;;;;40.75;36.25;;;;;-145.45;100.00;57426.63;4967444;28;46390;-77
2022/01/17 05:15:26;;;;;;;;;48.75;39.50;;;;;-145.45;100.00;57426.63;4979930;28;45527;-73
2022/01/17 05:18:01;;;;;;;;;47.75;39.75;;;;;-145.45;100.00;57426.63;4971135;28;45282;-73
2022/01/17 05:20:28;;;;;;;;;54.75;41.50;;;;;-145.45;100.00;57426.63;4978287;28;45297;-76
2022/01/17 05:22:54;;;;;;;;;47.75;39.75;;;;;-145.45;100.00;57426.63;4971839;28;44788;-76
2022/01/17 05:25:19;;;;;;;;;40.75;35.75;;;;;-145.45;100.00;57426.63;4979046;28;45284;-76
2022/01/17 05:27:45;;;;;;;;;47.00;39.75;;;;;-145.45;100.00;57426.63;4973891;28;45246;-76
2022/01/17 05:30:15;;;;;;;;;40.25;34.50;;;;;-145.45;100.00;57426.63;4978491;28;45298;-76
2022/01/17 05:32:41;;;;;;;;;47.50;37.50;;;;;-145.45;100.00;57426.63;4973429;28;46326;-73
2022/01/17 05:35:07;;;;;;;;;44.25;37.75;;;;;-145.45;100.00;57426.63;4994516;28;47246;-74
2022/01/17 05:37:33;;;;;;;;;48.75;39.00;;;;;-145.45;100.00;57426.63;4977531;28;45379;-75
2022/01/17 05:39:59;;;;;;;;;45.50;40.00;;;;;-145.45;100.00;57426.63;4978603;28;45308;-74
2022/01/17 05:42:24;;;;;;;;;43.25;38.50;;;;;-145.45;100.00;57426.63;4972938;28;45226;-75
2022/01/17 05:44:51;;;;;;;;;39.00;36.75;;;;;-145.45;100.00;57426.63;4979567;28;46230;-74
2022/01/17 05:47:16;;;;;;;;;40.25;34.25;;;;;-145.45;100.00;57426.63;4977637;28;45398;-74
2022/01/17 05:49:43;;;;;;;;;42.75;37.50;;;;;-145.45;100.00;57426.63;4978534;28;45247;-74
2022/01/17 05:52:08;;;;;;;;;46.00;38.25;;;;;-145.45;100.00;57426.63;4973931;28;46472;-74
2022/01/17 05:54:34;;;;;;;;;41.75;38.75;;;;;-145.45;100.00;57426.63;4979257;28;46251;-74
2022/01/17 05:56:59;;;;;;;;;45.25;38.25;;;;;-145.45;100.00;57426.63;4973235;28;45454;-75
2022/01/17 05:59:25;;;;;;;;;44.00;36.50;;;;;-145.45;100.00;57426.63;4975009;28;45269;-75
2022/01/17 06:01:50;;;;;;;;;41.00;33.00;;;;;-145.45;100.00;57426.63;4974065;28;46393;-75
2022/01/17 06:04:16;;;;;;;;;43.75;38.00;;;;;-145.45;100.00;57426.63;4974815;28;46425;-74
2022/01/17 06:06:41;;;;;;;;;40.00;37.25;;;;;-145.45;100.00;57426.63;4975121;28;45427;-74
2022/01/17 06:09:07;;;;;;;;;45.00;36.75;;;;;-145.45;100.00;57426.63;4976883;28;45325;-74
2022/01/17 06:11:35;;;;;;;;;42.50;35.50;;;;;-145.45;100.00;57426.63;4974575;28;45279;-74
2022/01/17 06:14:00;;;;;;;;;45.00;37.50;;;;;-145.45;100.00;57426.63;4974066;28;46922;-74
2022/01/17 06:16:27;;;;;;;;;39.50;38.00;;;;;-145.45;100.00;57426.63;4978449;28;45514;-72
2022/01/17 06:18:52;;;;;;;;;44.50;39.25;;;;;-145.45;100.00;57426.63;4982806;28;45300;-73
2022/01/17 06:21:17;;;;;;;;;42.75;37.75;;;;;-145.45;100.00;57426.63;4994539;28;47049;-73
2022/01/17 06:23:43;;;;;;;;;46.50;40.00;;;;;-145.45;100.00;57426.63;4982463;28;45334;-73
2022/01/17 06:26:08;;;;;;;;;42.00;38.25;;;;;-145.45;100.00;57426.63;4977805;28;44826;-74
2022/01/17 06:28:34;;;;;;;;;44.50;39.00;;;;;-145.45;100.00;57426.63;4979523;28;45393;-74
2022/01/17 06:30:59;;;;;;;;;54.00;41.50;;;;;-145.45;100.00;57426.63;4979514;28;45331;-75
2022/01/17 06:33:25;;;;;;;;;52.00;41.00;;;;;-145.45;100.00;57426.63;4992012;28;47349;-74
2022/01/17 06:35:50;;;;;;;;;49.75;39.25;;;;;-145.45;100.00;57426.63;4994495;28;45929;-74
2022/01/17 06:38:16;;;;;;;;;46.00;36.00;;;;;-145.45;100.00;57426.63;4984586;28;44708;-73
2022/01/17 06:40:41;;;;;;;;;45.25;38.00;;;;;-145.45;100.00;57426.63;4976685;28;45460;-72
2022/01/17 06:43:08;;;;;;;;;49.50;39.75;;;;;-145.45;100.00;57426.63;4977139;28;45428;-72
2022/01/17 06:45:34;;;;;;;;;51.00;41.00;;;;;-145.45;100.00;57426.63;4978618;28;45313;-72
2022/01/17 06:48:01;;;;;;;;;52.75;39.25;;;;;-145.45;100.00;57426.63;4992648;28;45419;-72
2022/01/17 06:50:26;;;;;;;;;49.00;38.00;;;;;-145.45;100.00;57426.63;4994224;28;46312;-72
2022/01/17 06:52:51;;;;;;;;;44.50;33.75;;;;;-145.45;100.00;57426.63;4976895;28;46203;-74
2022/01/17 06:55:17;;;;;;;;;48.00;40.25;;;;;-145.45;100.00;57426.63;4981199;28;45358;-73
2022/01/17 06:57:42;;;;;;;;;45.00;39.75;;;;;-145.45;100.00;57426.63;4973665;28;45262;-73
2022/01/17 07:00:10;;;;;;;;;46.75;39.75;;;;;-145.45;100.00;57426.63;4978747;28;46316;-73
2022/01/17 07:02:35;;;;;;;;;49.00;40.25;;;;;-145.45;100.00;57426.63;4974450;28;45394;-73
2022/01/17 07:05:01;;;;;;;;;44.25;40.00;;;;;-145.45;100.00;57426.63;4979785;28;45322;-74
2022/01/17 07:07:26;;;;;;;;;50.25;42.75;;;;;-145.45;100.00;57426.63;4977644;28;45488;-73
2022/01/17 07:09:51;;;;;;;;;57.25;44.75;;;;;-145.45;100.00;57426.63;4980839;28;45305;-73
2022/01/17 07:12:17;;;;;;;;;52.75;42.25;;;;;-145.45;100.00;57426.63;4976506;28;45242;-74
2022/01/17 07:14:42;;;;;;;;;53.25;43.75;;;;;-145.45;100.00;57426.63;4980893;28;45431;-73
2022/01/17 07:17:09;;;;;;;;;53.00;44.75;;;;;-145.45;100.00;57426.63;4979662;28;45240;-73
2022/01/17 07:19:35;;;;;;;;;54.75;43.50;;;;;-145.45;100.00;57426.63;4981141;28;45322;-73
2022/01/17 07:22:00;;;;;;;;;56.00;44.75;;;;;-145.45;100.00;57426.63;4979477;28;48557;-73
2022/01/17 07:24:25;;;;;;;;;49.25;42.00;;;;;-145.45;100.00;57426.63;4980068;28;45448;-73
2022/01/17 07:26:51;;;;;;;;;47.75;41.75;;;;;-145.45;100.00;57426.63;4979242;28;45851;-75
2022/01/17 07:29:16;;;;;;;;;57.25;43.75;;;;;-145.45;100.00;57426.63;4978173;28;45214;-75
2022/01/17 07:31:41;;;;;;;;;55.50;44.00;;;;;-145.45;100.00;57426.63;4974820;28;45634;-75
2022/01/17 07:34:07;;;;;;;;;61.00;47.50;;;;;-145.45;100.00;57426.63;4980729;28;45357;-75
2022/01/17 07:36:33;;;;;;;;;50.50;39.75;;;;;-145.45;100.00;57426.63;4978763;28;45464;-75
2022/01/17 07:38:59;;;;;;;;;46.25;37.00;;;;;-145.45;100.00;57426.63;4980939;28;45306;-75
2022/01/17 07:41:25;;;;;;;;;56.00;40.50;;;;;-145.45;100.00;57426.63;4979258;28;46969;-75
2022/01/17 07:43:52;;;;;;;;;51.75;41.50;;;;;-145.45;100.00;57426.63;4980828;28;45376;-75
2022/01/17 07:46:26;;;;;;;;;48.75;39.25;;;;;-145.45;100.00;57426.63;4975099;28;44816;-74
2022/01/17 07:51:34;;;;;;;;;56.75;45.00;;;;;-145.45;100.00;57426.63;4976066;28;45243;-75
2022/01/17 07:54:00;;;;;;;;;58.50;45.00;;;;;-145.45;100.00;57426.63;4977710;28;45335;-75
2022/01/17 07:56:26;;;;;;;;;50.75;44.50;;;;;-145.45;100.00;57426.63;4975065;28;45285;-75
2022/01/17 07:58:51;;;;;;;;;49.25;41.50;;;;;-145.45;100.00;57426.63;4977071;28;45271;-75
2022/01/17 08:01:17;;;;;;;;;51.00;43.00;;;;;-145.45;100.00;57426.63;4978754;28;47325;-75
2022/01/17 08:03:42;;;;;;;;;57.75;42.25;;;;;-145.45;100.00;57426.63;4978121;28;45338;-75
2022/01/17 08:06:08;;;;;;;;;58.50;46.00;;;;;-145.45;100.00;57426.63;4978134;28;45299;-75
2022/01/17 08:08:34;;;;;;;;;58.75;44.00;;;;;-145.45;100.00;57426.63;4978886;28;45254;-75
2022/01/17 08:11:00;;;;;;;;;52.50;41.50;;;;;-145.45;100.00;57426.63;4978254;28;46167;-75
2022/01/17 08:13:25;;;;;;;;;52.00;44.25;;;;;-145.45;100.00;57426.63;4971833;28;45212;-76
2022/01/17 08:15:50;;;;;;;;;56.50;44.50;;;;;-145.45;100.00;57426.63;4978797;28;45211;-73
2022/01/17 08:18:16;;;;;;;;;50.25;40.50;;;;;-145.45;100.00;57426.63;4978996;28;47198;-75
2022/01/17 08:20:42;;;;;;;;;56.00;43.75;;;;;-145.45;100.00;57426.63;4977128;28;47036;-76
2022/01/17 08:23:09;;;;;;;;;50.25;40.00;;;;;-145.45;100.00;57426.63;4973922;28;45278;-76
2022/01/17 08:25:35;;;;;;;;;67.50;52.00;;;;;-145.45;100.00;57426.63;4978792;28;45426;-75
2022/01/17 08:28:00;;;;;;;;;54.25;44.75;;;;;-145.45;100.00;57426.63;4973552;28;45419;-76
2022/01/17 08:30:26;;;;;;;;;52.75;42.25;;;;;-145.45;100.00;57426.63;4979167;28;46518;-75
2022/01/17 08:32:52;;;;;;;;;60.00;45.00;;;;;-145.45;100.00;57426.63;4978801;28;45991;-74
2022/01/17 08:35:19;;;;;;;;;54.50;43.50;;;;;-145.45;100.00;57426.63;4978219;28;45342;-75
2022/01/17 08:37:44;;;;;;;;;62.50;51.25;;;;;-145.45;100.00;57426.63;4993488;28;46177;-74
2022/01/17 08:40:11;;;;;;;;;57.25;47.25;;;;;-145.45;100.00;57426.63;4995387;28;47162;-74
2022/01/17 08:42:37;;;;;;;;;58.75;44.25;;;;;-145.45;100.00;57426.63;4974153;28;44716;-74
2022/01/17 08:45:06;;;;;;;;;68.25;53.25;;;;;-145.45;100.00;57426.63;4980519;28;45376;-74
2022/01/17 08:47:31;;;;;;;;;54.00;44.75;;;;;-145.45;100.00;57426.63;4974043;28;45284;-74
2022/01/17 08:49:57;;;;;;;;;61.25;47.75;;;;;-145.45;100.00;57426.63;4979770;28;45310;-74
2022/01/17 08:52:22;;;;;;;;;57.00;45.25;;;;;-145.45;100.00;57426.63;4977953;28;46126;-74
2022/01/17 08:54:48;;;;;;;;;50.25;42.50;;;;;-145.45;100.00;57426.63;4980163;28;45590;-74
2022/01/17 08:57:14;;;;;;;;;44.75;40.50;;;;;-145.45;100.00;57426.63;4973200;28;47048;-75
2022/01/17 08:59:40;;;;;;;;;60.75;49.00;;;;;-145.45;100.00;57426.63;4979280;28;45373;-74
2022/01/17 09:02:05;;;;;;;;;51.50;42.00;;;;;-145.45;100.00;57426.63;4989775;28;45237;-75
2022/01/17 09:04:31;;;;;;;;;44.25;40.25;;;;;-145.45;100.00;57426.63;4976448;28;44785;-75
2022/01/17 09:06:57;;;;;;;;;56.50;39.75;;;;;-145.45;100.00;57426.63;4975059;28;46190;-75
2022/01/17 09:09:23;;;;;;;;;48.25;41.00;;;;;-145.45;100.00;57426.63;4976262;28;45320;-74
2022/01/17 09:11:48;;;;;;;;;50.00;38.50;;;;;-145.45;100.00;57426.63;4973980;28;45598;-75
2022/01/17 09:14:13;;;;;;;;;49.25;40.50;;;;;-145.45;100.00;57426.63;4974944;28;45402;-75
2022/01/17 09:16:39;;;;;;;;;44.00;37.00;;;;;-145.45;100.00;57426.63;4975820;28;45523;-75
2022/01/17 09:19:06;;;;;;;;;40.75;39.25;;;;;-145.45;100.00;57426.63;4972721;28;46924;-76
2022/01/17 09:21:31;;;;;;;;;52.25;42.75;;;;;-145.45;100.00;57426.63;4976089;28;45540;-75
2022/01/17 09:23:58;;;;;;;;;51.25;39.75;;;;;-145.45;100.00;57426.63;4994861;28;45270;-76
2022/01/17 09:26:27;;;;;;;;;43.75;36.25;;;;;-145.45;100.00;57426.63;4967817;28;45951;-73
2022/01/17 09:28:54;;;;;;;;;50.25;42.00;;;;;-145.45;100.00;57426.63;4979338;28;45682;-75
2022/01/17 09:31:20;;;;;;;;;31.50;26.00;;;;;-145.45;100.00;57426.63;4973751;28;45302;-75
2022/01/17 09:33:46;;;;;;;;;43.75;36.75;;;;;-145.45;100.00;57426.63;4977879;28;45402;-75
2022/01/17 09:36:11;;;;;;;;;45.25;36.50;;;;;-145.45;100.00;57426.63;4977460;28;45385;-75
2022/01/17 09:38:37;;;;;;;;;49.75;42.25;;;;;-145.45;100.00;57426.63;4975987;28;46945;-75
2022/01/17 09:41:03;;;;;;;;;54.25;40.25;;;;;-145.45;100.00;57426.63;4974465;28;45464;-75
2022/01/17 09:43:29;;;;;;;;;40.50;36.00;;;;;-145.45;100.00;57426.63;4979385;28;45279;-75
2022/01/17 09:45:56;;;;;;;;;45.50;36.75;;;;;-145.45;100.00;57426.63;4977115;28;46380;-75
2022/01/17 09:48:24;;;;;;;;;45.25;36.25;;;;;-145.45;100.00;57426.63;4975112;28;47075;-75
2022/01/17 09:51:05;;;;;;;;;45.50;36.75;;;;;-145.45;100.00;57426.63;4975801;28;45845;-75
2022/01/17 09:53:38;;;;;;;;;48.25;38.50;;;;;-145.45;100.00;57426.63;4979474;28;45263;-76
2022/01/17 09:56:06;;;;;;;;;44.25;38.00;;;;;-145.45;100.00;57426.63;4979855;28;45223;-75
2022/01/17 09:58:35;;;;;;;;;41.75;38.25;;;;;-145.45;100.00;57426.63;4977994;28;45482;-75
2022/01/17 10:01:03;;;;;;;;;42.75;34.50;;;;;-145.45;100.00;57426.63;4978864;28;44894;-75
2022/01/17 10:03:29;;;;;;;;;42.25;38.00;;;;;-145.45;100.00;57426.63;4980802;28;45295;-76
2022/01/17 10:05:55;;;;;;;;;40.25;36.00;;;;;-145.45;100.00;57426.63;4977879;28;46131;-76
2022/01/17 10:08:22;;;;;;;;;43.00;34.75;;;;;-145.45;100.00;57426.63;4976567;28;47474;-76
2022/01/17 10:11:02;;;;;;;;;50.00;38.25;;;;;-145.45;100.00;57426.63;4978079;28;45158;-76
2022/01/17 10:13:41;;;;;;;;;48.50;39.25;;;;;-145.45;100.00;57426.63;4978812;28;45402;-75
2022/01/17 10:16:19;;;;;;;;;46.50;39.00;;;;;-145.45;100.00;57426.63;4994252;28;46143;-76
2022/01/17 10:19:00;;;;;;;;;44.50;39.50;;;;;-145.45;100.00;57426.63;4979044;28;46087;-76
2022/01/17 10:24:25;;;;;;;;;50.25;38.25;;;;;-145.45;100.00;57426.63;4976836;28;45423;-75
2022/01/17 10:27:14;;;;;;;;;48.25;38.75;;;;;-145.45;100.00;57426.63;4977599;28;46350;-75
2022/01/17 10:30:16;;;;;;;;;44.00;36.25;;;;;-145.45;100.00;57426.63;4979105;28;45532;-75
2022/01/17 10:35:25;;;;;;;;;37.50;34.00;;;;;-145.45;100.00;57426.63;4980017;28;45332;-75
2022/01/17 10:38:21;;;;;;;;;48.25;38.50;;;;;-145.45;100.00;57426.63;4977764;28;45555;-74
2022/01/17 10:40:58;;;;;;;;;44.25;38.50;;;;;-145.45;100.00;57426.63;4977587;28;46817;-74
2022/01/17 10:43:35;;;;;;;;;46.75;38.50;;;;;-145.45;100.00;57426.63;4990489;28;45261;-76
2022/01/17 10:46:13;;;;;;;;;47.00;40.00;;;;;-145.45;100.00;57426.63;4978388;28;45361;-75
2022/01/17 10:48:45;;;;;;;;;50.00;38.50;;;;;-145.45;100.00;57426.63;4976375;28;45556;-75
2022/01/17 10:51:13;;;;;;;;;59.00;42.50;;;;;-145.45;100.00;57426.63;4977548;28;45263;-75
2022/01/17 10:53:40;;;;;;;;;49.50;40.75;;;;;-145.45;100.00;57426.63;4979030;28;45831;-75
2022/01/17 10:56:09;;;;;;;;;44.75;38.00;;;;;-145.45;100.00;57426.63;4978207;28;45351;-75
2022/01/17 10:58:38;;;;;;;;;41.00;33.25;;;;;-145.45;100.00;57426.63;4976450;28;45292;-75
2022/01/17 11:01:08;;;;;;;;;43.50;38.00;;;;;-145.45;100.00;57426.63;4978532;28;47367;-76
2022/01/17 11:03:35;;;;;;;;;50.00;38.00;;;;;-145.45;100.00;57426.63;4978847;28;44760;-75
2022/01/17 11:06:09;;;;;;;;;46.75;39.00;;;;;-145.45;100.00;57426.63;4978532;28;45401;-75
2022/01/17 11:08:35;;;;;;;;;47.25;39.25;;;;;-145.45;100.00;57426.63;4978214;28;46511;-73